createdAt,value
2019-05-28T00:00:06.114Z,50.00
2019-05-28T00:02:38.055Z,50.00
2019-05-28T00:05:08.450Z,50.00
2019-05-28T00:07:38.861Z,50.00
2019-05-28T00:10:09.604Z,50.10
2019-05-28T00:12:40.374Z,50.10
2019-05-28T00:15:12.241Z,50.10
2019-05-28T00:17:42.560Z,50.10
2019-05-28T00:20:13.876Z,50.10
2019-05-28T00:22:44.345Z,50.20
2019-05-28T00:25:14.729Z,50.20
2019-05-28T00:27:45.190Z,50.20
2019-05-28T00:30:20.375Z,50.20
2019-05-28T00:32:47.656Z,50.30
2019-05-28T00:35:18.874Z,50.30
2019-05-28T00:37:49.275Z,50.30
2019-05-28T00:40:19.629Z,50.30
2019-05-28T00:42:50.114Z,50.30
2019-05-28T00:45:20.404Z,50.30
2019-05-28T00:47:50.786Z,50.50
2019-05-28T00:50:21.152Z,50.40
2019-05-28T00:52:51.437Z,50.50
2019-05-28T00:55:21.735Z,50.50
2019-05-28T00:57:53.110Z,50.50
2019-05-28T01:00:42.232Z,50.50
2019-05-28T01:03:12.777Z,50.60
2019-05-28T01:05:43.243Z,50.70
2019-05-28T01:08:13.653Z,50.70
2019-05-28T01:10:44.357Z,50.70
2019-05-28T01:13:14.806Z,50.80
2019-05-28T01:15:45.302Z,50.70
2019-05-28T01:18:15.680Z,50.70
2019-05-28T01:20:46.114Z,50.80
2019-05-28T01:23:16.645Z,50.80
2019-05-28T01:25:47.127Z,50.90
2019-05-28T01:28:17.515Z,50.80
2019-05-28T01:31:01.053Z,51.00
2019-05-28T01:33:31.793Z,50.90
2019-05-28T01:36:02.175Z,50.90
2019-05-28T01:38:32.476Z,51.00
2019-05-28T01:41:02.908Z,51.00
2019-05-28T01:43:33.288Z,51.10
2019-05-28T01:46:03.719Z,51.00
2019-05-28T01:48:34.106Z,51.10
2019-05-28T01:51:04.539Z,51.00
2019-05-28T01:53:34.948Z,51.00
2019-05-28T01:56:05.395Z,51.10
2019-05-28T01:58:47.810Z,51.00
2019-05-28T02:01:30.417Z,51.00
2019-05-28T02:04:01.944Z,51.10
2019-05-28T02:06:32.426Z,51.20
2019-05-28T02:09:02.806Z,51.20
2019-05-28T02:11:33.617Z,51.30
2019-05-28T02:14:04.128Z,51.30
2019-05-28T02:16:34.361Z,51.30
2019-05-28T02:19:04.801Z,51.40
2019-05-28T02:21:35.245Z,51.50
2019-05-28T02:24:05.652Z,51.50
2019-05-28T02:26:36.074Z,51.70
2019-05-28T02:29:18.081Z,51.60
2019-05-28T02:31:48.506Z,51.70
2019-05-28T02:34:18.967Z,51.70
2019-05-28T02:36:49.854Z,51.70
2019-05-28T02:39:20.334Z,51.70
2019-05-28T02:41:50.715Z,51.70
2019-05-28T02:44:21.252Z,51.70
2019-05-28T02:46:51.598Z,51.70
2019-05-28T02:49:22.010Z,51.70
2019-05-28T02:51:52.317Z,51.70
2019-05-28T02:54:22.699Z,51.90
2019-05-28T02:56:53.044Z,51.90
2019-05-28T02:59:23.426Z,52.00
2019-05-28T03:01:53.830Z,52.00
2019-05-28T03:04:24.641Z,52.00
2019-05-28T03:06:55.542Z,52.00
2019-05-28T03:09:27.118Z,52.00
2019-05-28T03:11:57.481Z,52.10
2019-05-28T03:14:27.916Z,52.10
2019-05-28T03:17:01.145Z,52.10
2019-05-28T03:19:31.633Z,52.10
2019-05-28T03:22:02.062Z,52.20
2019-05-28T03:24:32.537Z,52.30
2019-05-28T03:27:03.123Z,52.20
2019-05-28T03:29:33.484Z,52.20
2019-05-28T03:32:07.960Z,52.30
2019-05-28T03:34:35.923Z,52.30
2019-05-28T03:37:06.359Z,52.30
2019-05-28T03:39:36.931Z,52.30
2019-05-28T03:42:07.390Z,52.30
2019-05-28T03:44:37.819Z,52.30
2019-05-28T03:47:08.214Z,52.40
2019-05-28T03:49:38.642Z,52.30
2019-05-28T03:52:09.083Z,52.40
2019-05-28T03:54:39.440Z,52.40
2019-05-28T03:57:09.868Z,52.40
2019-05-28T03:59:40.269Z,52.40
2019-05-28T04:02:23.315Z,52.30
2019-05-28T04:05:01.876Z,52.30
2019-05-28T04:07:32.333Z,52.30
2019-05-28T04:10:02.748Z,52.30
2019-05-28T04:12:33.175Z,52.40
2019-05-28T04:15:03.631Z,52.30
2019-05-28T04:17:34.286Z,52.30
2019-05-28T04:20:05.213Z,52.30
2019-05-28T04:22:35.595Z,52.40
2019-05-28T04:25:05.988Z,52.30
2019-05-28T04:27:36.365Z,52.40
2019-05-28T04:30:08.477Z,52.40
2019-05-28T04:32:40.981Z,52.40
2019-05-28T04:35:11.173Z,52.50
2019-05-28T04:37:41.462Z,52.50
2019-05-28T04:40:11.861Z,52.50
2019-05-28T04:42:42.218Z,52.50
2019-05-28T04:45:12.976Z,52.50
2019-05-28T04:47:43.250Z,52.50
2019-05-28T04:50:13.697Z,52.50
2019-05-28T04:52:44.142Z,52.60
2019-05-28T04:55:14.394Z,52.70
2019-05-28T04:57:44.827Z,52.60
2019-05-28T05:00:15.279Z,52.70
2019-05-28T05:02:58.839Z,52.70
2019-05-28T05:05:17.404Z,52.90
2019-05-28T05:07:47.794Z,52.90
2019-05-28T05:10:19.191Z,53.90
2019-05-28T05:12:50.083Z,53.60
2019-05-28T05:15:20.280Z,54.20
2019-05-28T05:17:50.703Z,54.70
2019-05-28T05:20:21.058Z,54.90
2019-05-28T05:22:51.377Z,55.20
2019-05-28T05:25:21.667Z,55.60
2019-05-28T05:27:52.502Z,55.70
2019-05-28T05:30:22.914Z,55.70
2019-05-28T05:32:53.404Z,55.70
2019-05-28T05:35:23.845Z,55.70
2019-05-28T05:37:54.686Z,55.90
2019-05-28T05:40:24.884Z,56.10
2019-05-28T05:42:55.275Z,56.10
2019-05-28T05:45:25.574Z,56.10
2019-05-28T05:47:56.193Z,56.20
2019-05-28T05:50:26.561Z,56.30
2019-05-28T05:52:56.990Z,56.40
2019-05-28T05:55:27.319Z,57.30
2019-05-28T06:00:26.489Z,56.70
2019-05-28T06:02:57.054Z,56.90
2019-05-28T06:05:27.512Z,57.10
2019-05-28T06:08:00.238Z,57.20
2019-05-28T06:10:31.787Z,57.00
2019-05-28T06:13:06.246Z,56.90
2019-05-28T06:18:29.577Z,57.30
2019-05-28T06:32:35.235Z,58.00
2019-05-28T06:35:08.949Z,58.30
2019-05-28T06:37:44.405Z,58.20
2019-05-28T06:40:15.702Z,58.40
2019-05-28T06:42:46.783Z,58.60
2019-05-28T06:45:18.843Z,58.20
2019-05-28T06:47:52.470Z,58.20
2019-05-28T06:50:22.973Z,57.60
2019-05-28T06:52:55.106Z,58.20
2019-05-28T06:55:32.536Z,58.20
2019-05-28T06:58:04.492Z,58.20
2019-05-28T07:00:37.374Z,58.20
2019-05-28T07:03:11.623Z,58.20
2019-05-28T07:05:45.938Z,58.20
2019-05-28T07:08:16.425Z,58.30
2019-05-28T07:10:57.623Z,58.10
2019-05-28T07:13:22.210Z,57.90
2019-05-28T07:16:04.827Z,57.80
2019-05-28T07:18:36.302Z,57.70
2019-05-28T07:21:08.934Z,57.70
2019-05-28T07:23:39.781Z,58.10
2019-05-28T07:26:11.124Z,58.30
2019-05-28T07:28:41.666Z,58.40
2019-05-28T07:31:21.683Z,58.60
2019-05-28T07:33:53.902Z,58.60
2019-05-28T07:36:24.773Z,58.60
2019-05-28T07:38:56.205Z,58.70
2019-05-28T07:41:29.549Z,58.70
2019-05-28T07:44:04.629Z,58.80
2019-05-28T07:46:35.777Z,58.90
2019-05-28T07:49:06.879Z,58.90
2019-05-28T07:51:39.560Z,59.40
2019-05-28T07:54:13.020Z,59.30
2019-05-28T07:56:45.342Z,59.40
2019-05-28T07:59:15.952Z,59.30
2019-05-28T08:04:29.238Z,59.40
2019-05-28T08:07:01.969Z,59.10
2019-05-28T08:12:03.485Z,58.30
2019-05-28T08:14:37.335Z,58.70
2019-05-28T08:17:10.602Z,57.30
2019-05-28T08:19:41.514Z,57.50
2019-05-28T08:22:13.796Z,57.70
2019-05-28T08:24:45.304Z,57.60
2019-05-28T08:27:17.774Z,57.30
2019-05-28T08:32:37.998Z,55.80
2019-05-28T08:43:27.102Z,55.40
2019-05-28T08:48:34.539Z,55.80
2019-05-28T08:51:05.108Z,55.70
2019-05-28T08:53:35.566Z,55.50
2019-05-28T08:56:06.702Z,55.60
2019-05-28T08:58:37.169Z,55.00
2019-05-28T09:01:10.489Z,54.60
2019-05-28T09:03:41.180Z,53.90
2019-05-28T09:06:36.608Z,53.50
2019-05-28T09:08:48.588Z,53.80
2019-05-28T09:11:19.623Z,54.40
2019-05-28T09:16:51.151Z,55.20
2019-05-28T09:21:57.862Z,56.40
2019-05-28T09:27:05.291Z,57.20
2019-05-28T09:29:42.949Z,58.10
2019-05-28T09:32:13.925Z,58.10
2019-05-28T09:34:49.443Z,58.00
2019-05-28T09:40:09.457Z,57.50
2019-05-28T09:43:46.245Z,57.50
2019-05-28T09:45:50.066Z,57.60
2019-05-28T09:48:22.608Z,58.00
2019-05-28T09:50:54.513Z,57.60
2019-05-28T09:53:24.954Z,56.80
2019-05-28T09:56:00.157Z,56.40
2019-05-28T09:58:35.628Z,55.60
2019-05-28T10:01:07.710Z,55.30
2019-05-28T10:06:17.415Z,54.50
2019-05-28T10:09:07.952Z,54.30
2019-05-28T10:12:11.454Z,54.40
2019-05-28T10:17:28.808Z,55.30
2019-05-28T10:20:01.769Z,55.80
2019-05-28T10:22:33.451Z,56.00
2019-05-28T10:25:04.091Z,55.80
2019-05-28T10:27:35.506Z,55.70
2019-05-28T10:30:06.622Z,55.50
2019-05-28T10:32:39.896Z,55.40
2019-05-28T10:35:10.606Z,55.40
2019-05-28T10:37:41.541Z,55.20
2019-05-28T10:40:12.485Z,55.10
2019-05-28T10:42:43.327Z,54.90
2019-05-28T10:45:15.874Z,54.90
2019-05-28T10:47:51.075Z,54.90
2019-05-28T10:56:42.059Z,54.80
2019-05-28T11:05:46.326Z,54.80
2019-05-28T11:10:53.848Z,53.80
2019-05-28T11:13:23.464Z,54.00
2019-05-28T11:16:08.586Z,54.20
2019-05-28T11:18:39.565Z,54.00
2019-05-28T11:21:14.876Z,54.30
2019-05-28T11:23:46.462Z,54.50
2019-05-28T11:26:27.943Z,54.80
2019-05-28T11:29:05.985Z,54.80
2019-05-28T11:31:41.635Z,54.70
2019-05-28T11:34:14.607Z,54.30
2019-05-28T11:36:48.979Z,54.00
2019-05-28T11:39:19.762Z,54.00
2019-05-28T11:42:03.295Z,54.30
2019-05-28T11:44:36.132Z,54.20
2019-05-28T11:47:09.538Z,54.80
2019-05-28T11:49:48.696Z,55.50
2019-05-28T11:52:24.880Z,55.90
2019-05-28T11:54:55.371Z,56.30
2019-05-28T11:57:25.898Z,57.00
2019-05-28T12:00:01.577Z,57.20
2019-05-28T12:02:32.306Z,57.50
2019-05-28T12:07:52.294Z,57.30
2019-05-28T12:10:25.443Z,57.10
2019-05-28T12:12:58.658Z,57.10
2019-05-28T12:18:01.859Z,57.50
2019-05-28T12:20:38.297Z,57.70
2019-05-28T12:23:14.191Z,58.30
2019-05-28T12:25:48.304Z,58.40
2019-05-28T12:28:36.963Z,58.20
2019-05-28T12:31:03.542Z,58.00
2019-05-28T12:33:35.658Z,58.30
2019-05-28T12:36:09.630Z,58.50
2019-05-28T12:38:40.965Z,58.50
2019-05-28T12:41:11.594Z,58.00
2019-05-28T12:43:42.073Z,57.50
2019-05-28T12:46:16.568Z,57.10
2019-05-28T12:48:48.003Z,56.90
2019-05-28T12:51:22.069Z,57.10
2019-05-28T12:53:54.013Z,57.20
2019-05-28T12:56:33.872Z,57.40
